Time;durP1;ratioP1;P1;durP2;ratioP2;P2;SDS_P1;SDS_P2;PMS_P1;PMS_P2;Temp;Humidity;BMP_temperature;BMP_pressure;BME280_temperature;BME280_humidity;BME280_pressure;Samples;Min_cycle;Max_cycle;Signal;HPM_P1;HPM_P2
2022/07/23 00:01:19;;;;;;;4.47;1.85;;;;;;;15.04;100.00;101923.53;2614743;36;20069;-50
2022/07/23 00:03:48;;;;;;;2.72;1.92;;;;;;;14.91;100.00;101923.78;2615332;36;20435;-50
2022/07/23 00:06:16;;;;;;;3.90;2.55;;;;;;;14.83;100.00;101919.06;2614789;36;20078;-49
2022/07/23 00:08:45;;;;;;;3.90;2.05;;;;;;;14.75;100.00;101920.75;2615314;36;20564;-50
2022/07/23 00:11:13;;;;;;;4.80;2.53;;;;;;;14.69;100.00;101920.31;2615028;31;20542;-50
2022/07/23 00:13:41;;;;;;;3.80;2.60;;;;;;;14.78;100.00;101928.59;2615458;36;20493;-49
2022/07/23 00:16:11;;;;;;;4.33;2.80;;;;;;;14.78;100.00;101913.22;2614458;36;20030;-46
2022/07/23 00:18:42;;;;;;;5.43;2.88;;;;;;;14.74;100.00;101921.75;2615104;31;20275;-47
2022/07/23 00:21:10;;;;;;;5.35;2.90;;;;;;;14.71;100.00;101910.19;2614954;36;20030;-48
2022/07/23 00:23:39;;;;;;;3.35;2.80;;;;;;;14.70;100.00;101910.34;2615573;36;20420;-47
2022/07/23 00:26:07;;;;;;;3.80;2.70;;;;;;;14.73;100.00;101909.22;2614819;36;20051;-47
2022/07/23 00:28:36;;;;;;;5.30;3.05;;;;;;;14.67;100.00;101900.63;2615377;31;20041;-48
2022/07/23 00:31:04;;;;;;;4.53;3.07;;;;;;;14.63;100.00;101899.16;2614625;31;20034;-49
2022/07/23 00:33:33;;;;;;;4.80;3.00;;;;;;;14.60;100.00;101904.84;2614813;36;20436;-49
2022/07/23 00:36:05;;;;;;;4.95;2.70;;;;;;;14.59;100.00;101907.69;2614826;36;20062;-47
2022/07/23 00:38:33;;;;;;;4.35;3.00;;;;;;;14.55;100.00;101899.84;2615537;31;20038;-46
2022/07/23 00:41:01;;;;;;;4.47;3.43;;;;;;;14.55;100.00;101896.28;2614490;36;20031;-47
2022/07/23 00:43:30;;;;;;;3.95;3.05;;;;;;;14.53;100.00;101887.41;2614907;36;20038;-47
2022/07/23 00:45:58;;;;;;;3.77;2.90;;;;;;;14.48;100.00;101895.09;2614946;36;20432;-46
2022/07/23 00:48:26;;;;;;;5.60;3.20;;;;;;;14.46;100.00;101887.13;2615073;36;20452;-46
2022/07/23 00:50:55;;;;;;;3.65;3.15;;;;;;;14.42;100.00;101895.66;2615308;36;20687;-48
2022/07/23 00:53:26;;;;;;;5.05;2.83;;;;;;;14.41;100.00;101891.22;2614575;36;20118;-48
2022/07/23 00:55:55;;;;;;;5.85;3.00;;;;;;;14.40;100.00;101894.91;2615171;36;20049;-47
2022/07/23 00:58:23;;;;;;;6.22;3.38;;;;;;;14.35;100.00;101892.63;2615288;31;20030;-47
2022/07/23 01:00:52;;;;;;;8.43;3.90;;;;;;;14.31;100.00;101889.34;2615782;36;20103;-48
2022/07/23 01:03:20;;;;;;;4.85;3.10;;;;;;;14.31;100.00;101888.47;2615513;36;20326;-48
2022/07/23 01:05:48;;;;;;;4.32;2.70;;;;;;;14.31;100.00;101883.03;2615293;36;20094;-47
2022/07/23 01:08:17;;;;;;;5.10;3.13;;;;;;;14.29;100.00;101880.47;2615920;36;20031;-48
2022/07/23 01:10:49;;;;;;;4.82;3.03;;;;;;;14.25;100.00;101879.06;2615611;36;20548;-48
2022/07/23 01:13:18;;;;;;;5.88;3.17;;;;;;;14.21;100.00;101880.31;2615906;36;20042;-49
2022/07/23 01:15:46;;;;;;;6.70;3.13;;;;;;;14.09;100.00;101871.41;2615858;36;20061;-49
2022/07/23 01:18:14;;;;;;;4.63;3.10;;;;;;;14.06;100.00;101873.50;2615201;36;20034;-50
2022/07/23 01:20:43;;;;;;;4.95;3.35;;;;;;;14.00;100.00;101872.19;2615771;36;20054;-49
2022/07/23 01:23:14;;;;;;;4.75;3.55;;;;;;;13.97;100.00;101875.16;2615935;36;20039;-47
2022/07/23 01:25:50;;;;;;;4.18;2.88;;;;;;;13.93;100.00;101866.47;2615768;36;20031;-52
2022/07/23 01:28:18;;;;;;;6.30;3.20;;;;;;;13.95;100.00;101866.34;2615486;31;20037;-49
2022/07/23 01:30:47;;;;;;;6.50;3.38;;;;;;;13.94;100.00;101876.31;2615596;36;20155;-49
2022/07/23 01:33:15;;;;;;;4.20;3.25;;;;;;;13.90;100.00;101877.56;2615494;36;20027;-49
2022/07/23 01:35:44;;;;;;;5.77;2.53;;;;;;;13.86;100.00;101873.41;2615084;36;20030;-48
2022/07/23 01:38:15;;;;;;;3.50;2.93;;;;;;;13.79;100.00;101874.94;2616231;36;20109;-47
2022/07/23 01:40:43;;;;;;;8.35;3.28;;;;;;;13.77;100.00;101874.22;2615637;36;20054;-48
2022/07/23 01:43:11;;;;;;;7.03;3.67;;;;;;;13.77;100.00;101863.38;2615536;36;20590;-50
2022/07/23 01:45:39;;;;;;;5.40;3.30;;;;;;;13.77;100.00;101866.94;2615506;36;20054;-46
2022/07/23 01:48:09;;;;;;;5.32;3.25;;;;;;;13.76;100.00;101872.50;2616066;36;20409;-48
2022/07/23 01:50:40;;;;;;;5.70;3.40;;;;;;;13.74;100.00;101875.31;2615865;54;20031;-47
2022/07/23 01:53:09;;;;;;;6.53;3.28;;;;;;;13.69;100.00;101871.28;2615821;36;20039;-47
2022/07/23 01:55:40;;;;;;;4.97;3.72;;;;;;;13.59;100.00;101868.50;2615618;36;20038;-49
2022/07/23 01:58:08;;;;;;;5.63;3.55;;;;;;;13.58;100.00;101870.38;2615687;31;20031;-49
2022/07/23 02:00:37;;;;;;;6.68;3.40;;;;;;;13.62;100.00;101868.28;2615525;36;20071;-48
2022/07/23 02:03:06;;;;;;;6.00;3.63;;;;;;;13.64;100.00;101874.41;2615311;36;20035;-48
2022/07/23 02:05:34;;;;;;;8.03;4.60;;;;;;;13.59;100.00;101871.22;2615516;36;20046;-44
2022/07/23 02:08:03;;;;;;;5.00;3.13;;;;;;;13.52;100.00;101854.66;2615303;36;20047;-49
2022/07/23 02:10:31;;;;;;;4.47;3.20;;;;;;;13.57;100.00;101860.53;2615354;36;20041;-48
2022/07/23 02:13:02;;;;;;;5.33;3.20;;;;;;;13.57;100.00;101862.38;2615129;36;20582;-50
2022/07/23 02:15:31;;;;;;;4.45;3.20;;;;;;;13.61;100.00;101858.44;2615427;31;20059;-48
2022/07/23 02:17:59;;;;;;;4.72;3.28;;;;;;;13.58;100.00;101856.00;2614768;36;20055;-49
2022/07/23 02:20:28;;;;;;;5.20;3.10;;;;;;;13.52;100.00;101862.78;2615294;36;20090;-47
2022/07/23 02:22:56;;;;;;;4.05;3.17;;;;;;;13.49;100.00;101852.22;2615452;31;20038;-49
2022/07/23 02:25:24;;;;;;;4.80;3.05;;;;;;;13.46;100.00;101847.09;2615366;36;20035;-47
2022/07/23 02:27:52;;;;;;;7.00;3.40;;;;;;;13.46;100.00;101841.69;2615884;36;20042;-47
2022/07/23 02:30:23;;;;;;;6.07;3.30;;;;;;;13.38;100.00;101857.69;2615026;36;20038;-47
2022/07/23 02:32:52;;;;;;;4.70;3.17;;;;;;;13.36;100.00;101863.22;2614681;36;20047;-49
2022/07/23 02:35:20;;;;;;;5.28;2.90;;;;;;;13.31;100.00;101852.75;2615164;36;20069;-51
2022/07/23 02:37:48;;;;;;;4.67;3.10;;;;;;;13.29;100.00;101852.06;2615533;36;20058;-49
2022/07/23 02:40:17;;;;;;;4.95;3.50;;;;;;;13.31;100.00;101860.03;2615591;31;20019;-48
2022/07/23 02:42:45;;;;;;;4.27;3.30;;;;;;;13.31;100.00;101873.56;2615528;36;20038;-53
2022/07/23 02:45:14;;;;;;;3.97;3.25;;;;;;;13.27;100.00;101863.97;2615679;36;20705;-53
2022/07/23 02:47:45;;;;;;;6.35;3.80;;;;;;;13.31;100.00;101869.00;2614784;31;20065;-50
2022/07/23 02:50:13;;;;;;;5.75;3.40;;;;;;;13.30;100.00;101869.97;2615155;36;20034;-48
2022/07/23 02:52:41;;;;;;;5.53;3.43;;;;;;;13.33;100.00;101872.41;2615624;36;20031;-47
2022/07/23 02:55:10;;;;;;;6.50;3.13;;;;;;;13.35;100.00;101869.59;2615378;36;20608;-49
2022/07/23 02:57:39;;;;;;;5.85;3.70;;;;;;;13.30;100.00;101872.66;2615484;36;20062;-47
2022/07/23 03:00:09;;;;;;;6.57;3.77;;;;;;;13.30;100.00;101878.09;2614537;36;20037;-48
2022/07/23 03:02:38;;;;;;;4.50;3.10;;;;;;;13.29;100.00;101880.91;2614769;36;20118;-46
2022/07/23 03:05:10;;;;;;;5.72;3.67;;;;;;;13.31;100.00;101882.50;2615986;31;20487;-47
2022/07/23 03:07:38;;;;;;;5.40;3.88;;;;;;;13.37;100.00;101888.41;2614750;36;20030;-51
2022/07/23 03:10:07;;;;;;;6.90;4.30;;;;;;;13.34;100.00;101894.94;2615877;31;20487;-51
2022/07/23 03:12:35;;;;;;;6.20;3.35;;;;;;;13.31;100.00;101898.72;2615580;36;20455;-48
2022/07/23 03:15:03;;;;;;;7.30;3.47;;;;;;;13.32;100.00;101888.75;2615873;36;20514;-52
2022/07/23 03:17:32;;;;;;;4.53;3.28;;;;;;;13.31;100.00;101887.06;2614441;36;20074;-52
2022/07/23 03:20:00;;;;;;;5.70;3.28;;;;;;;13.28;100.00;101890.88;2615197;36;20030;-46
2022/07/23 03:22:31;;;;;;;4.57;3.45;;;;;;;13.28;100.00;101885.47;2614311;36;20042;-47
2022/07/23 03:24:59;;;;;;;5.35;3.58;;;;;;;13.25;100.00;101885.72;2615405;36;20077;-50
2022/07/23 03:27:29;;;;;;;5.90;3.70;;;;;;;13.25;100.00;101890.25;2615192;36;20026;-47
2022/07/23 03:30:00;;;;;;;6.72;3.67;;;;;;;13.24;100.00;101894.81;2615510;36;20435;-49
2022/07/23 03:32:29;;;;;;;6.07;3.42;;;;;;;13.33;100.00;101910.25;2614912;31;20042;-51
2022/07/23 03:34:57;;;;;;;5.00;3.55;;;;;;;13.31;100.00;101909.53;2614913;31;20030;-51
2022/07/23 03:37:26;;;;;;;4.97;3.28;;;;;;;13.37;100.00;101904.63;2615159;36;20495;-48
2022/07/23 03:39:57;;;;;;;7.65;3.92;;;;;;;13.40;100.00;101907.09;2615029;36;20082;-48
2022/07/23 03:42:25;;;;;;;6.00;3.47;;;;;;;13.41;100.00;101895.28;2615611;31;20413;-50
2022/07/23 03:44:53;;;;;;;7.50;3.00;;;;;;;13.46;100.00;101898.47;2614767;31;20038;-48
2022/07/23 03:47:22;;;;;;;4.22;2.90;;;;;;;13.48;100.00;101901.88;2614247;36;20050;-48
2022/07/23 03:49:50;;;;;;;5.00;3.42;;;;;;;13.44;100.00;101898.59;2615227;36;20030;-51
2022/07/23 03:52:18;;;;;;;6.13;3.77;;;;;;;13.46;100.00;101899.31;2614983;31;20597;-47
2022/07/23 03:54:47;;;;;;;6.00;3.65;;;;;;;13.53;100.00;101899.66;2615719;31;20455;-48
2022/07/23 03:57:18;;;;;;;4.85;3.28;;;;;;;13.51;100.00;101893.50;2615357;36;20034;-51
2022/07/23 03:59:46;;;;;;;4.47;3.40;;;;;;;13.54;100.00;101890.53;2615054;36;20039;-49
2022/07/23 04:02:14;;;;;;;6.18;3.35;;;;;;;13.57;100.00;101884.88;2614504;36;20030;-45
2022/07/23 04:04:43;;;;;;;4.60;3.25;;;;;;;13.58;100.00;101883.88;2615129;36;20046;-51
2022/07/23 04:07:11;;;;;;;5.43;4.13;;;;;;;13.56;100.00;101876.88;2615179;36;20034;-48
2022/07/23 04:09:40;;;;;;;5.32;3.40;;;;;;;13.60;100.00;101876.53;2613784;36;20839;-48
2022/07/23 04:12:09;;;;;;;6.10;3.70;;;;;;;13.64;100.00;101874.41;2615700;31;20042;-50
2022/07/23 04:14:40;;;;;;;6.85;3.80;;;;;;;13.65;100.00;101868.84;2615113;36;20061;-47
2022/07/23 04:17:08;;;;;;;4.50;3.35;;;;;;;13.61;100.00;101867.41;2614842;36;20042;-47
2022/07/23 04:19:40;;;;;;;5.70;3.70;;;;;;;13.61;100.00;101869.25;2615048;36;20031;-47
2022/07/23 04:22:09;;;;;;;5.45;3.28;;;;;;;13.60;100.00;101865.69;2614491;36;20159;-47
2022/07/23 04:24:38;;;;;;;8.27;4.68;;;;;;;13.57;100.00;101867.78;2615283;36;20065;-47
2022/07/23 04:27:07;;;;;;;4.90;3.08;;;;;;;13.55;100.00;101881.44;2614791;36;20057;-48
2022/07/23 04:29:35;;;;;;;4.70;3.45;;;;;;;13.52;100.00;101870.91;2615203;36;20038;-51
2022/07/23 04:32:07;;;;;;;5.38;3.78;;;;;;;13.46;100.00;101874.97;2614076;36;20030;-47
2022/07/23 04:34:35;;;;;;;5.50;3.92;;;;;;;13.52;100.00;101870.06;2615032;36;20065;-47
2022/07/23 04:37:03;;;;;;;7.37;3.90;;;;;;;13.47;100.00;101878.53;2614605;36;20030;-49
2022/07/23 04:39:32;;;;;;;5.90;3.70;;;;;;;13.44;100.00;101884.19;2614903;36;20151;-48
2022/07/23 04:42:00;;;;;;;6.93;3.45;;;;;;;13.39;100.00;101886.44;2614445;36;20038;-46
2022/07/23 04:44:28;;;;;;;6.50;3.72;;;;;;;13.47;100.00;101897.47;2614983;36;20034;-51
2022/07/23 04:46:56;;;;;;;4.50;3.22;;;;;;;13.51;100.00;101885.41;2613970;36;20078;-49
2022/07/23 04:49:27;;;;;;;5.63;3.07;;;;;;;13.55;100.00;101889.56;2615127;36;20154;-51
2022/07/23 04:51:55;;;;;;;5.40;2.97;;;;;;;13.64;100.00;101885.22;2614234;36;20026;-48
2022/07/23 04:54:24;;;;;;;4.00;2.72;;;;;;;13.64;100.00;101890.63;2615103;36;20047;-46
2022/07/23 04:56:52;;;;;;;4.47;3.05;;;;;;;13.62;100.00;101890.75;2614900;31;20507;-50
2022/07/23 04:59:20;;;;;;;3.67;2.83;;;;;;;13.69;100.00;101896.50;2614945;36;20548;-52
2022/07/23 05:01:49;;;;;;;3.42;2.95;;;;;;;13.74;100.00;101888.84;2614239;36;20140;-47
2022/07/23 05:04:17;;;;;;;4.10;2.80;;;;;;;13.81;100.00;101881.09;2614630;36;20022;-47
2022/07/23 05:06:48;;;;;;;8.02;3.58;;;;;;;13.90;100.00;101888.41;2614724;36;20556;-49
2022/07/23 05:09:16;;;;;;;6.15;3.05;;;;;;;14.01;100.00;101885.59;2615273;36;20046;-48
2022/07/23 05:11:44;;;;;;;6.95;3.40;;;;;;;14.08;100.00;101895.91;2614957;31;20030;-52
2022/07/23 05:14:13;;;;;;;8.32;3.58;;;;;;;14.00;100.00;101902.84;2614951;36;20030;-49
2022/07/23 05:16:41;;;;;;;5.55;3.15;;;;;;;14.07;100.00;101897.75;2614048;36;20057;-53
2022/07/23 05:19:10;;;;;;;6.67;3.63;;;;;;;14.18;100.00;101910.38;2615081;36;20039;-49
2022/07/23 05:21:38;;;;;;;5.97;3.45;;;;;;;14.26;100.00;101907.81;2614269;36;20349;-47
2022/07/23 05:24:09;;;;;;;4.55;3.08;;;;;;;14.35;100.00;101914.28;2614417;36;20094;-49
2022/07/23 05:26:37;;;;;;;10.20;3.67;;;;;;;14.41;100.00;101918.31;2614069;36;20035;-47
2022/07/23 05:29:06;;;;;;;4.47;3.35;;;;;;;14.50;100.00;101920.19;2615700;31;20453;-50
2022/07/23 05:31:34;;;;;;;4.97;3.53;;;;;;;14.62;100.00;101918.28;2614610;36;20453;-48
2022/07/23 05:34:02;;;;;;;4.30;3.07;;;;;;;14.63;100.00;101910.00;2614856;36;20034;-48
2022/07/23 05:36:30;;;;;;;4.53;3.40;;;;;;;14.69;100.00;101908.59;2614659;36;20035;-48
2022/07/23 05:38:59;;;;;;;5.90;3.13;;;;;;;14.68;100.00;101915.88;2614511;36;20498;-54
2022/07/23 05:41:30;;;;;;;5.07;2.90;;;;;;;14.67;100.00;101916.03;2614407;36;20034;-50
2022/07/23 05:43:58;;;;;;;6.72;3.28;;;;;;;14.76;100.00;101922.47;2614462;36;20030;-47
2022/07/23 05:46:26;;;;;;;5.97;3.17;;;;;;;14.81;100.00;101920.19;2615132;32;20065;-49
2022/07/23 05:48:55;;;;;;;5.50;3.20;;;;;;;14.89;100.00;101925.78;2615637;36;20058;-50
2022/07/23 05:51:23;;;;;;;4.50;2.83;;;;;;;15.01;100.00;101924.69;2615530;31;20030;-48
2022/07/23 05:53:52;;;;;;;4.30;2.90;;;;;;;15.03;100.00;101928.13;2615721;31;20030;-51
2022/07/23 05:56:21;;;;;;;7.45;3.17;;;;;;;15.15;100.00;101930.69;2615023;36;20591;-48
2022/07/23 05:58:52;;;;;;;6.25;2.80;;;;;;;15.17;100.00;101926.00;2615600;36;20552;-48
2022/07/23 06:01:20;;;;;;;5.93;2.85;;;;;;;15.21;100.00;101930.16;2615020;36;20030;-47
2022/07/23 06:03:48;;;;;;;4.30;2.53;;;;;;;15.29;100.00;101922.16;2615975;36;20038;-48
2022/07/23 06:06:17;;;;;;;3.92;2.42;;;;;;;15.50;100.00;101926.59;2615541;36;20431;-48
2022/07/23 06:08:45;;;;;;;6.67;2.47;;;;;;;15.60;100.00;101924.75;2616137;36;20093;-51
2022/07/23 06:11:13;;;;;;;5.43;2.40;;;;;;;15.66;100.00;101931.47;2615612;36;20061;-49
2022/07/23 06:13:42;;;;;;;3.10;2.10;;;;;;;15.81;100.00;101926.47;2615200;31;20567;-52
2022/07/23 06:16:13;;;;;;;4.47;2.87;;;;;;;15.80;100.00;101935.63;2614415;36;20556;-48
2022/07/23 06:18:43;;;;;;;3.65;2.40;;;;;;;15.81;100.00;101931.91;2615360;36;20023;-48
2022/07/23 06:21:11;;;;;;;3.20;2.40;;;;;;;16.15;100.00;101926.00;2615182;36;20030;-49
2022/07/23 06:23:39;;;;;;;5.03;2.50;;;;;;;16.49;100.00;101920.03;2615328;36;20038;-51
2022/07/23 06:26:08;;;;;;;2.80;2.10;;;;;;;16.56;100.00;101921.13;2615656;31;20042;-50
2022/07/23 06:28:36;;;;;;;4.28;2.08;;;;;;;16.67;100.00;101925.53;2615552;36;20030;-50
2022/07/23 06:31:05;;;;;;;2.27;1.70;;;;;;;16.84;100.00;101923.88;2615586;36;20066;-51
2022/07/23 06:33:36;;;;;;;2.83;2.00;;;;;;;17.07;100.00;101922.47;2615275;36;20050;-49
2022/07/23 06:36:04;;;;;;;6.25;2.53;;;;;;;16.95;100.00;101921.00;2614882;36;20444;-51
2022/07/23 06:38:32;;;;;;;5.73;2.27;;;;;;;17.20;100.00;101930.28;2615314;36;20115;-47
2022/07/23 06:41:01;;;;;;;6.53;2.17;;;;;;;17.46;100.00;101919.50;2615439;36;20904;-47
2022/07/23 06:43:29;;;;;;;5.70;2.07;;;;;;;17.65;100.00;101917.59;2615344;36;20039;-49
2022/07/23 06:45:57;;;;;;;4.93;2.42;;;;;;;17.94;100.00;101916.50;2614240;31;20030;-47
2022/07/23 06:48:25;;;;;;;3.00;1.97;;;;;;;18.15;100.00;101917.00;2614973;36;20030;-50
2022/07/23 06:50:56;;;;;;;3.38;2.03;;;;;;;18.02;100.00;101911.97;2614659;36;20339;-49
2022/07/23 06:53:25;;;;;;;5.05;1.70;;;;;;;18.17;100.00;101917.69;2615544;36;20076;-49
2022/07/23 06:55:53;;;;;;;2.27;1.70;;;;;;;18.14;100.00;101917.16;2614709;36;20034;-48
2022/07/23 06:58:21;;;;;;;5.23;1.57;;;;;;;18.49;100.00;101918.03;2615467;36;20355;-46
2022/07/23 07:00:50;;;;;;;2.47;1.55;;;;;;;18.73;100.00;101929.06;2615478;36;20034;-48
2022/07/23 07:03:19;;;;;;;2.28;1.40;;;;;;;19.09;100.00;101930.75;2614778;36;20035;-48
2022/07/23 07:05:49;;;;;;;2.00;1.35;;;;;;;19.45;100.00;101933.22;2615327;31;20571;-50
2022/07/23 07:08:20;;;;;;;2.50;1.50;;;;;;;19.20;100.00;101933.19;2615402;36;20031;-48
2022/07/23 07:10:48;;;;;;;4.32;1.75;;;;;;;19.20;100.00;101935.91;2614979;36;20041;-48
2022/07/23 07:13:17;;;;;;;3.87;1.40;;;;;;;19.64;100.00;101934.78;2614740;36;20038;-50
2022/07/23 07:15:45;;;;;;;4.85;1.60;;;;;;;19.54;100.00;101932.22;2615175;36;20307;-49
2022/07/23 07:18:13;;;;;;;1.70;1.30;;;;;;;19.31;100.00;101933.88;2614703;36;20042;-48
2022/07/23 07:20:41;;;;;;;9.25;1.95;;;;;;;19.66;100.00;101932.72;2614944;36;20455;-47
2022/07/23 07:23:10;;;;;;;2.20;1.55;;;;;;;19.90;100.00;101926.44;2615563;36;20089;-50
2022/07/23 07:25:41;;;;;;;3.40;1.50;;;;;;;20.55;100.00;101921.00;2615291;36;20034;-49
2022/07/23 07:28:09;;;;;;;2.35;1.27;;;;;;;21.03;100.00;101926.50;2614337;31;20034;-49
2022/07/23 07:30:37;;;;;;;5.97;1.30;;;;;;;21.03;100.00;101932.81;2615369;36;20542;-47
2022/07/23 07:33:06;;;;;;;5.65;1.45;;;;;;;20.86;100.00;101932.00;2615206;36;20492;-47
2022/07/23 07:35:34;;;;;;;3.72;1.50;;;;;;;20.44;100.00;101933.19;2614610;36;20041;-48
2022/07/23 07:38:03;;;;;;;2.20;1.50;;;;;;;20.29;100.00;101942.09;2615194;31;20502;-53
2022/07/23 07:40:31;;;;;;;2.38;1.50;;;;;;;20.14;100.00;101949.31;2614762;36;20057;-47
2022/07/23 07:43:03;;;;;;;2.30;1.40;;;;;;;19.83;100.00;101952.75;2615207;36;20067;-47
2022/07/23 07:45:31;;;;;;;5.13;1.30;;;;;;;19.67;100.00;101963.63;2615034;36;20072;-49
2022/07/23 07:48:00;;;;;;;2.35;1.60;;;;;;;19.91;100.00;101955.47;2614970;36;20073;-47
2022/07/23 07:50:28;;;;;;;3.00;1.60;;;;;;;20.34;100.00;101963.44;2615254;36;20038;-51
2022/07/23 07:52:56;;;;;;;2.95;1.50;;;;;;;20.29;100.00;101968.59;2615507;36;20436;-50
2022/07/23 07:55:25;;;;;;;4.38;1.70;;;;;;;20.32;100.00;101960.03;2615195;36;20030;-48
2022/07/23 07:57:53;;;;;;;3.78;1.73;;;;;;;20.13;100.00;101964.00;2614515;36;20561;-52
2022/07/23 08:00:24;;;;;;;4.53;1.70;;;;;;;19.98;100.00;101972.03;2615619;36;20522;-48
2022/07/23 08:02:54;;;;;;;2.47;1.80;;;;;;;20.23;100.00;101972.88;2614425;36;20578;-53
2022/07/23 08:05:31;;;;;;;2.00;1.75;;;;;;;20.52;100.00;101967.84;2615867;36;20031;-47
2022/07/23 08:08:01;;;;;;;2.88;1.27;;;;;;;20.74;100.00;101971.75;2614779;36;20053;-53
2022/07/23 08:10:31;;;;;;;3.95;1.55;;;;;;;20.71;100.00;101972.94;2615503;36;20031;-51
2022/07/23 08:13:00;;;;;;;5.70;1.50;;;;;;;20.44;100.00;101977.78;2614234;36;20034;-51
2022/07/23 08:15:33;;;;;;;4.15;1.70;;;;;;;20.80;100.00;101981.97;2615159;36;20038;-53
2022/07/23 08:18:02;;;;;;;2.42;1.50;;;;;;;20.80;100.00;101979.25;2614357;36;20038;-51
2022/07/23 08:20:30;;;;;;;2.20;1.80;;;;;;;20.62;100.00;101969.34;2614512;36;20038;-56
2022/07/23 08:23:00;;;;;;;4.05;2.00;;;;;;;20.77;100.00;101976.88;2614676;36;20043;-50
2022/07/23 08:25:31;;;;;;;2.60;1.77;;;;;;;20.56;100.00;101982.88;2614931;36;20091;-50
2022/07/23 08:28:00;;;;;;;3.17;1.90;;;;;;;20.57;100.00;101981.88;2614036;36;20053;-50
2022/07/23 08:30:32;;;;;;;2.60;1.80;;;;;;;20.94;100.00;101975.78;2614820;36;20069;-53
2022/07/23 08:33:02;;;;;;;3.95;1.45;;;;;;;21.03;100.00;101971.13;2614324;36;20046;-48
2022/07/23 08:35:33;;;;;;;2.83;1.85;;;;;;;20.86;100.00;101970.31;2613178;36;20122;-50
2022/07/23 08:38:02;;;;;;;3.10;1.30;;;;;;;20.95;100.00;101973.88;2615142;31;20030;-48
2022/07/23 08:40:32;;;;;;;3.70;1.90;;;;;;;21.22;100.00;101977.19;2615033;36;20435;-48
2022/07/23 08:43:02;;;;;;;6.10;1.73;;;;;;;21.26;100.00;101976.66;2614612;36;20030;-49
2022/07/23 08:45:32;;;;;;;2.55;1.67;;;;;;;21.50;100.00;101980.28;2614946;36;20057;-49
2022/07/23 08:48:01;;;;;;;7.20;1.50;;;;;;;21.53;100.00;101979.94;2614569;36;20030;-52
2022/07/23 08:50:29;;;;;;;2.28;1.50;;;;;;;21.50;100.00;101978.41;2614769;36;20042;-48
2022/07/23 08:52:58;;;;;;;3.28;1.55;;;;;;;21.42;100.00;101980.31;2614797;36;20039;-49
2022/07/23 08:55:27;;;;;;;;;;;;;;;21.49;100.00;101978.56;2614971;36;20498;-47
2022/07/23 08:57:56;;;;;;;2.60;1.73;;;;;;;21.89;100.00;101984.78;2614540;36;19954;-47
2022/07/23 09:00:25;;;;;;;4.28;1.65;;;;;;;22.01;100.00;101985.22;2614041;31;20455;-51
2022/07/23 09:02:56;;;;;;;4.25;1.90;;;;;;;21.73;100.00;101987.66;2614307;36;20583;-49
2022/07/23 09:05:24;;;;;;;3.00;1.50;;;;;;;21.51;100.00;101985.59;2614281;36;20093;-50
2022/07/23 09:08:08;;;;;;;2.20;1.58;;;;;;;21.60;100.00;101978.19;2613972;36;20026;-50
2022/07/23 09:10:49;;;;;;;1.85;1.25;;;;;;;22.26;100.00;101974.91;2615404;31;20034;-51
2022/07/23 09:13:37;;;;;;;2.85;1.30;;;;;;;21.89;100.00;101971.09;2614467;36;20030;-48
2022/07/23 09:16:07;;;;;;;;;;;;;;;21.88;100.00;101970.25;2614561;36;20436;-53
2022/07/23 09:18:41;;;;;;;3.78;1.83;;;;;;;21.59;100.00;101978.38;2613632;36;19953;-48
2022/07/23 09:21:24;;;;;;;2.97;1.30;;;;;;;21.90;100.00;101967.31;2615372;36;20499;-48
2022/07/23 09:23:55;;;;;;;3.90;1.63;;;;;;;22.25;100.00;101983.31;2615580;31;20045;-46
2022/07/23 09:26:33;;;;;;;3.65;1.30;;;;;;;21.92;100.00;101981.69;2615623;36;20034;-51
2022/07/23 09:29:14;;;;;;;2.13;1.53;;;;;;;21.73;100.00;101979.44;2615571;36;20046;-48
2022/07/23 09:31:51;;;;;;;5.60;1.30;;;;;;;22.05;100.00;101992.03;2614804;36;20038;-49
2022/07/23 09:34:25;;;;;;;2.10;1.30;;;;;;;21.97;100.00;101982.00;2615584;36;20045;-51
2022/07/23 09:36:54;;;;;;;2.22;1.35;;;;;;;22.19;100.00;101984.91;2615353;36;20539;-50
2022/07/23 09:39:30;;;;;;;2.25;1.00;;;;;;;22.75;100.00;101977.13;2615663;36;20455;-48
2022/07/23 09:41:59;;;;;;;1.70;1.20;;;;;;;23.07;100.00;101980.50;2615109;36;20053;-49
2022/07/23 09:44:27;;;;;;;2.22;1.40;;;;;;;23.27;100.00;101975.28;2615080;36;20027;-46
2022/07/23 09:47:01;;;;;;;1.90;1.30;;;;;;;23.30;100.00;101979.53;2614992;36;20046;-49
2022/07/23 09:49:32;;;;;;;2.10;1.10;;;;;;;22.51;100.00;101986.50;2615552;36;20031;-48
2022/07/23 09:52:02;;;;;;;1.55;1.13;;;;;;;22.77;100.00;101984.31;2614993;36;20081;-48
2022/07/23 09:54:36;;;;;;;1.40;1.02;;;;;;;22.62;100.00;101990.66;2616492;36;20027;-53
2022/07/23 09:57:10;;;;;;;3.10;1.10;;;;;;;22.42;100.00;101987.59;2615703;36;20146;-46
2022/07/23 09:59:40;;;;;;;3.67;1.30;;;;;;;23.12;100.00;101982.69;2615970;36;20130;-54
2022/07/23 10:02:11;;;;;;;2.80;1.35;;;;;;;23.01;100.00;101985.91;2615030;36;20811;-49
2022/07/23 10:04:43;;;;;;;1.88;1.27;;;;;;;23.08;100.00;101987.69;2615707;31;20058;-48
2022/07/23 10:07:12;;;;;;;2.35;1.10;;;;;;;22.92;100.00;101982.41;2615555;31;20034;-51
2022/07/23 10:09:42;;;;;;;2.72;1.30;;;;;;;22.91;100.00;101988.97;2615797;31;20057;-47
2022/07/23 10:12:18;;;;;;;2.88;1.20;;;;;;;22.81;100.00;101997.47;2615321;36;20034;-51
2022/07/23 10:14:45;;;;;;;1.75;1.10;;;;;;;22.81;100.00;101996.63;2615363;36;20035;-51
2022/07/23 10:17:15;;;;;;;1.80;0.95;;;;;;;22.94;100.00;101983.09;2615032;36;20085;-50
2022/07/23 10:19:46;;;;;;;1.77;1.23;;;;;;;23.28;98.63;101981.63;2616237;36;20443;-52
2022/07/23 10:22:17;;;;;;;1.75;1.13;;;;;;;23.01;100.00;101980.41;2614759;31;20688;-50
2022/07/23 10:24:55;;;;;;;2.63;1.10;;;;;;;22.80;100.00;101982.03;2614763;36;20568;-53
2022/07/23 10:27:41;;;;;;;1.70;1.10;;;;;;;23.10;96.86;101984.81;2615360;36;20443;-47
2022/07/23 10:30:14;;;;;;;3.72;1.10;;;;;;;22.78;100.00;101975.91;2615134;36;20039;-50
2022/07/23 10:32:51;;;;;;;2.17;1.13;;;;;;;23.53;100.00;101979.38;2614050;31;20035;-52
2022/07/23 10:35:28;;;;;;;2.05;1.30;;;;;;;23.43;100.00;101979.69;2614858;36;20058;-50
2022/07/23 10:38:03;;;;;;;2.15;1.17;;;;;;;23.42;100.00;101980.75;2615353;36;20061;-49
2022/07/23 10:40:33;;;;;;;2.80;1.23;;;;;;;22.97;100.00;101974.47;2615849;31;20035;-51
2022/07/23 10:43:03;;;;;;;1.80;1.10;;;;;;;23.22;100.00;101982.41;2615161;36;20061;-49
2022/07/23 10:45:34;;;;;;;2.80;1.38;;;;;;;23.20;100.00;101985.34;2615289;36;20034;-55
2022/07/23 10:48:16;;;;;;;3.85;1.75;;;;;;;23.29;100.00;101977.81;2615048;36;20058;-48
2022/07/23 10:51:14;;;;;;;2.85;1.33;;;;;;;23.70;100.00;101982.69;2615640;36;20035;-49
2022/07/23 10:54:06;;;;;;;2.95;1.25;;;;;;;23.87;100.00;101977.84;2614260;36;20034;-50
2022/07/23 10:57:08;;;;;;;1.98;1.30;;;;;;;24.18;96.23;101970.28;2614932;36;20068;-47
2022/07/23 11:00:07;;;;;;;3.60;1.48;;;;;;;24.58;100.00;101976.03;2615508;36;20559;-53
2022/07/23 11:02:36;;;;;;;1.73;1.30;;;;;;;24.71;100.00;101975.31;2614842;36;20126;-50
2022/07/23 11:05:08;;;;;;;1.95;1.23;;;;;;;24.73;88.13;101974.03;2615477;36;20749;-50
2022/07/23 11:07:59;;;;;;;2.70;1.40;;;;;;;24.28;100.00;101979.03;2615493;36;20034;-52
2022/07/23 11:10:37;;;;;;;2.85;1.50;;;;;;;24.01;99.72;101976.03;2615673;36;20034;-53
2022/07/23 11:13:36;;;;;;;3.20;1.48;;;;;;;23.50;100.00;101973.41;2615179;36;20130;-47
2022/07/23 11:16:27;;;;;;;1.63;1.10;;;;;;;24.02;100.00;101966.75;2614871;36;20046;-47
2022/07/23 11:19:07;;;;;;;1.70;1.15;;;;;;;24.34;100.00;101971.84;2615394;36;20166;-49
2022/07/23 11:21:52;;;;;;;2.08;1.10;;;;;;;24.70;94.71;101974.44;2614694;36;20035;-47
2022/07/23 11:24:25;;;;;;;2.20;1.30;;;;;;;24.30;93.03;101971.41;2615535;36;20037;-52
2022/07/23 11:27:02;;;;;;;3.15;1.27;;;;;;;24.69;99.82;101972.75;2615337;31;20030;-49
2022/07/23 11:29:41;;;;;;;1.90;1.20;;;;;;;24.93;82.83;101965.03;2615559;36;20042;-47
2022/07/23 11:32:10;;;;;;;;;;;;;;;24.99;84.24;101972.47;2614670;31;20046;-48
2022/07/23 11:34:42;;;;;;;2.80;1.20;;;;;;;24.78;99.48;101974.28;2615301;36;19946;-52